Airfield :
LOGIN :

Register | Disclaimer

   EN    FR    IT 

 










Legend :    VFR   Marginal VFR   IFR   Intensive IFR   Very Intensive IFR
Visi :
Ceiling :
>= 8 km
>= 3000ft
5 to 8 km
1000 to 3000 ft
1500m to 5 km
500 to 1000 ft
800 to 1500m
200 to 500 ft
< 800m
< 200 ft
Symbols :   Thunderstorms  Fog  Heavy snow  Heavy precipitations  Wind > 20 kt
SIGMETs :     Misc.  Thunderstorms  Icing  Turbulence  Mountain Waves  Volcanic Ashes







- Airport Elevation : 215 ft
- IATA code : ABZ
- Download approach charts


EGPD - Aberdeen / Dyce

CURRENT METAR :
  • 190250Z AUTO 15002KT 1900 BR FEW032 10/10 Q1028 TEMPO 3000

EXPIRED METARs :
  • 190220Z AUTO 17004KT 1000 BR NCD 09/09 Q1028 TEMPO 1500
  • 190150Z AUTO 15003KT 1200 BR FEW004 SCT021 BKN036 11/10 Q1029 TEMPO 1500
  • 190120Z 15004KT 2000 BR BKN003 OVC018 11/11 Q1029 TEMPO 1400
  • 190050Z AUTO 16003KT 0700 R34/P1500 FG BKN004 BKN012 OVC020 11/11 Q1029
  • 190020Z AUTO VRB03KT 0750 R34/P1500 FG BKN004 OVC011 11/11 Q1029 TEMPO 1500 BR BKN002

TAF AMD TAF EGPD
Valid from the 19 at 02:00 until the 20 at 00:00 UTC


190210Z 1902/1924 VRB04KT 6000 SCT020 BKN035
TEMPO 1902/1905 1400 BR BKN004
PROB40
TEMPO 1902/1905 0500 FG
BECMG 1905/1907 9999
PROB40 1921/1924 2000 BR BKN004
No reported NOTAMs for that airfield.



MET'MAP, your aeronautical weather chart ! - Copyright ORBIFLY December 2007 - Disclaimer

ORBIFLY MET'MAP TEAM :

Programming & Development : Alexandra Zaïnal
Concept & Development : Baudouin d'Aumeries
Co-Development & Prog : Marc-Olivier Méhu
Technical & hardware support : Manuel Goepfert

Contact : metmap@orbifly.com




SOURCES & CREDITS :

   NOAA